Time;durP1;ratioP1;P1;durP2;ratioP2;P2;SDS_P1;SDS_P2;PMS_P1;PMS_P2;Temp;Humidity;BMP_temperature;BMP_pressure;BME280_temperature;BME280_humidity;BME280_pressure;Samples;Min_cycle;Max_cycle;Signal;HPM_P1;HPM_P2
2023/01/14 00:00:34;;;;;;;19.65;4.78;;;;;;;7.19;100.00;101387.97;10400732;28;20037;-65
2023/01/14 00:05:34;;;;;;;25.42;4.03;;;;;;;7.18;100.00;101377.38;10417746;28;20536;-63
2023/01/14 00:10:37;;;;;;;11.88;4.95;;;;;;;7.10;100.00;101378.16;10418135;28;20061;-64
2023/01/14 00:15:37;;;;;;;13.07;3.65;;;;;;;7.04;100.00;101391.44;10400937;28;20041;-63
2023/01/14 00:20:37;;;;;;;13.70;5.70;;;;;;;7.06;100.00;101395.66;10401407;28;20038;-66
2023/01/14 00:25:38;;;;;;;13.90;4.60;;;;;;;7.11;100.00;101387.06;10425793;28;20041;-65
2023/01/14 00:30:41;;;;;;;11.80;4.88;;;;;;;7.03;100.00;101387.91;10437560;28;20069;-63
2023/01/14 00:35:41;;;;;;;21.95;4.72;;;;;;;6.97;100.00;101388.56;10434445;28;20068;-64
2023/01/14 00:40:41;;;;;;;19.90;5.93;;;;;;;6.93;100.00;101398.81;10423386;28;20484;-64
2023/01/14 00:45:42;;;;;;;24.55;5.18;;;;;;;6.88;100.00;101394.91;10422330;28;20065;-65
2023/01/14 00:50:42;;;;;;;13.98;5.28;;;;;;;6.77;100.00;101397.88;10421191;28;20040;-65
2023/01/14 00:55:43;;;;;;;12.82;5.50;;;;;;;6.76;100.00;101394.34;10438175;28;20037;-64
2023/01/14 01:00:44;;;;;;;10.65;4.63;;;;;;;6.72;100.00;101372.28;10406295;28;20036;-64
2023/01/14 01:05:45;;;;;;;11.77;4.22;;;;;;;6.72;100.00;101374.97;10433216;28;20054;-64
2023/01/14 01:10:46;;;;;;;18.92;5.55;;;;;;;6.62;100.00;101371.56;10425605;28;20069;-64
2023/01/14 01:15:46;;;;;;;19.52;4.75;;;;;;;6.50;100.00;101367.44;10395362;28;20457;-64
2023/01/14 01:20:47;;;;;;;29.70;5.00;;;;;;;6.43;100.00;101374.47;10438534;28;20049;-63
2023/01/14 01:25:47;;;;;;;17.42;4.90;;;;;;;6.43;100.00;101369.09;10449676;28;20153;-63
2023/01/14 01:30:48;;;;;;;19.50;4.75;;;;;;;6.39;100.00;101363.19;10436566;28;20038;-64
2023/01/14 01:35:49;;;;;;;24.40;5.80;;;;;;;6.40;100.00;101369.41;10418206;28;20049;-65
2023/01/14 01:40:49;;;;;;;17.58;3.58;;;;;;;6.41;100.00;101363.03;10444652;28;20042;-64
2023/01/14 01:45:50;;;;;;;19.30;4.72;;;;;;;6.37;100.00;101354.44;10444981;28;20029;-63
2023/01/14 01:50:58;;;;;;;35.17;6.35;;;;;;;6.35;100.00;101343.00;10418653;28;20105;-64
2023/01/14 01:55:58;;;;;;;26.13;4.45;;;;;;;6.26;100.00;101342.09;10407758;28;20041;-63
2023/01/14 02:00:59;;;;;;;12.35;5.43;;;;;;;6.16;100.00;101327.94;10427623;28;20049;-64
2023/01/14 02:06:00;;;;;;;26.15;4.32;;;;;;;6.00;100.00;101315.22;10425757;28;20092;-65
2023/01/14 02:11:30;;;;;;;10.60;3.78;;;;;;;5.91;100.00;101309.91;10438537;28;20428;-64
2023/01/14 02:16:53;;;;;;;11.82;4.13;;;;;;;5.95;100.00;101287.13;10423356;28;20036;-63
2023/01/14 02:22:20;;;;;;;23.15;5.70;;;;;;;5.97;100.00;101296.72;10422155;28;20048;-63
2023/01/14 02:27:23;;;;;;;23.80;7.37;;;;;;;6.03;100.00;101293.41;10422200;28;20084;-63
2023/01/14 02:32:49;;;;;;;25.65;4.15;;;;;;;5.94;100.00;101280.06;10421012;28;20045;-64
2023/01/14 02:37:55;;;;;;;25.03;6.73;;;;;;;5.94;100.00;101283.59;10422479;28;20054;-62
2023/01/14 02:48:22;;;;;;;8.65;4.32;;;;;;;5.79;100.00;101275.22;10392874;28;20053;-63
2023/01/14 02:53:22;;;;;;;18.63;5.45;;;;;;;5.81;100.00;101257.09;10387085;28;20148;-65
2023/01/14 02:58:53;;;;;;;19.77;5.10;;;;;;;5.70;100.00;101246.59;10403558;28;20033;-64
2023/01/14 03:04:13;;;;;;;17.40;5.82;;;;;;;5.71;100.00;101259.03;10421139;28;20037;-64
2023/01/14 03:09:17;;;;;;;25.58;5.72;;;;;;;5.72;100.00;101249.13;10421064;28;20456;-64
2023/01/14 03:14:20;;;;;;;23.77;5.78;;;;;;;5.73;100.00;101246.28;10418053;28;20029;-64
2023/01/14 03:19:37;;;;;;;28.10;5.47;;;;;;;5.77;100.00;101220.78;10416381;28;20080;-63
2023/01/14 03:24:44;;;;;;;;;;;;;;;5.80;100.00;101209.69;10406505;28;20037;-63
2023/01/14 03:29:46;;;;;;;14.32;7.50;;;;;;;5.81;100.00;101215.94;10401924;28;19931;-65
2023/01/14 03:35:11;;;;;;;31.05;7.13;;;;;;;5.90;100.00;101188.09;10401565;28;20049;-63
2023/01/14 03:40:12;;;;;;;18.83;4.60;;;;;;;5.90;100.00;101182.72;10391774;28;20045;-64
2023/01/14 03:45:20;;;;;;;10.95;6.15;;;;;;;5.97;100.00;101158.78;10420052;28;20033;-64
2023/01/14 03:50:23;;;;;;;28.52;7.90;;;;;;;6.03;100.00;101140.16;10401532;28;20112;-64
2023/01/14 03:55:36;;;;;;;22.30;5.38;;;;;;;6.10;100.00;101134.97;10383995;28;20544;-64
2023/01/14 04:00:46;;;;;;;23.25;6.80;;;;;;;6.16;100.00;101103.88;10419295;28;20044;-63
2023/01/14 04:05:46;;;;;;;41.65;7.30;;;;;;;6.23;100.00;101107.63;10400018;28;20116;-64
2023/01/14 04:10:46;;;;;;;39.00;6.45;;;;;;;6.29;100.00;101086.28;10383850;28;20033;-63
2023/01/14 04:15:47;;;;;;;14.70;4.82;;;;;;;6.33;100.00;101083.28;10417524;28;20125;-64
2023/01/14 04:20:47;;;;;;;13.40;6.60;;;;;;;6.39;100.00;101077.22;10400832;28;20489;-63
2023/01/14 04:25:48;;;;;;;28.63;6.32;;;;;;;6.40;100.00;101058.22;10417146;28;20037;-64
2023/01/14 04:30:49;;;;;;;32.55;8.60;;;;;;;6.40;100.00;101054.69;10399661;28;20488;-64
2023/01/14 04:35:49;;;;;;;28.67;7.65;;;;;;;6.38;100.00;101048.63;10416710;28;20079;-64
2023/01/14 04:40:50;;;;;;;27.63;6.85;;;;;;;6.36;100.00;101031.84;10416706;28;20465;-62
2023/01/14 04:45:51;;;;;;;34.50;5.82;;;;;;;6.43;100.00;101033.69;10382700;28;20041;-64
2023/01/14 04:50:52;;;;;;;18.50;5.47;;;;;;;6.50;100.00;101028.47;10398753;28;20323;-64
2023/01/14 04:55:55;;;;;;;19.50;5.55;;;;;;;6.51;100.00;101031.00;10399117;28;20033;-64
2023/01/14 05:00:55;;;;;;;25.17;7.50;;;;;;;6.55;100.00;101017.22;10383269;28;20037;-64
2023/01/14 05:05:56;;;;;;;11.30;5.10;;;;;;;6.56;100.00;100991.97;10398350;28;20071;-64
2023/01/14 05:10:56;;;;;;;35.67;7.88;;;;;;;6.52;100.00;100994.19;10416203;28;20044;-64
2023/01/14 05:16:00;;;;;;;17.58;5.82;;;;;;;6.54;100.00;100973.34;10415517;28;20389;-63
2023/01/14 05:21:01;;;;;;;20.75;5.43;;;;;;;6.51;100.00;100952.16;10397592;28;20034;-64
2023/01/14 05:26:01;;;;;;;23.25;5.70;;;;;;;6.43;100.00;100950.28;10397521;28;20436;-64
2023/01/14 05:31:01;;;;;;;46.38;7.18;;;;;;;6.42;100.00;100947.78;10418011;28;20037;-64
2023/01/14 05:36:02;;;;;;;11.95;4.32;;;;;;;6.41;100.00;100932.63;10431146;28;20049;-63
2023/01/14 05:41:03;;;;;;;23.48;6.28;;;;;;;6.43;100.00;100928.78;10412580;28;20045;-64
2023/01/14 05:46:08;;;;;;;15.75;3.30;;;;;;;6.41;100.00;100922.72;10413210;28;20052;-63
2023/01/14 05:51:10;;;;;;;15.85;5.10;;;;;;;6.40;100.00;100898.69;10427853;28;20041;-63
2023/01/14 05:56:11;;;;;;;15.52;5.45;;;;;;;6.33;100.00;100878.88;10410771;28;20092;-63
2023/01/14 06:06:38;;;;;;;14.75;5.55;;;;;;;6.39;100.00;100841.38;10399424;28;20525;-63
2023/01/14 06:11:45;;;;;;;24.75;5.93;;;;;;;6.28;100.00;100829.09;10393650;28;20491;-63
2023/01/14 06:16:51;;;;;;;7.55;4.30;;;;;;;6.38;100.00;100817.31;10411469;28;20025;-63
2023/01/14 06:21:52;;;;;;;13.40;4.37;;;;;;;6.34;100.00;100794.47;10429155;28;20053;-63
2023/01/14 06:26:52;;;;;;;11.80;4.90;;;;;;;6.29;100.00;100789.63;10428408;28;20377;-62
2023/01/14 06:31:52;;;;;;;18.50;5.25;;;;;;;6.27;100.00;100764.75;10428520;28;20112;-62
2023/01/14 06:36:53;;;;;;;30.67;5.60;;;;;;;6.17;100.00;100751.50;10428901;28;20041;-61
2023/01/14 06:41:53;;;;;;;22.35;6.88;;;;;;;6.11;100.00;100744.13;10409952;28;20045;-62
2023/01/14 06:46:55;;;;;;;25.65;5.68;;;;;;;6.08;100.00;100730.19;10421730;28;20053;-62
2023/01/14 06:51:55;;;;;;;16.85;7.40;;;;;;;6.11;100.00;100711.03;10420946;28;20104;-62
2023/01/14 06:56:55;;;;;;;13.07;4.35;;;;;;;6.14;100.00;100697.25;10404040;28;20033;-62
2023/01/14 07:01:56;;;;;;;10.27;5.10;;;;;;;6.11;100.00;100678.75;10421158;28;20038;-64
2023/01/14 07:06:56;;;;;;;19.88;5.40;;;;;;;6.12;100.00;100654.38;10421481;28;20379;-63
2023/01/14 07:11:57;;;;;;;13.35;4.65;;;;;;;6.18;100.00;100653.69;10402635;28;20044;-67
2023/01/14 07:16:57;;;;;;;5.07;3.45;;;;;;;6.16;100.00;100626.16;10419218;28;20037;-66
2023/01/14 07:21:57;;;;;;;8.45;4.00;;;;;;;6.22;100.00;100585.13;10419815;28;20069;-63
2023/01/14 07:26:58;;;;;;;11.27;4.85;;;;;;;6.27;100.00;100577.34;10420838;28;20045;-64
2023/01/14 07:31:58;;;;;;;11.20;4.32;;;;;;;6.34;100.00;100561.34;10419258;28;20128;-64
2023/01/14 07:36:59;;;;;;;20.92;5.07;;;;;;;6.32;100.00;100549.06;10419181;28;20124;-64
2023/01/14 07:41:59;;;;;;;15.15;4.07;;;;;;;6.35;100.00;100514.63;10418279;28;20423;-63
2023/01/14 07:47:00;;;;;;;13.23;4.53;;;;;;;6.39;100.00;100518.63;10418847;28;20048;-63
2023/01/14 07:52:00;;;;;;;13.30;4.22;;;;;;;6.46;100.00;100497.22;10418580;28;20037;-63
2023/01/14 07:57:00;;;;;;;7.20;3.33;;;;;;;6.53;100.00;100472.09;10417459;28;20042;-68
2023/01/14 08:02:01;;;;;;;0.63;0.63;;;;;;;6.64;100.00;100472.69;10418343;28;20034;-63
2023/01/14 08:07:05;;;;;;;0.47;0.47;;;;;;;6.68;100.00;100441.69;10418073;28;20041;-65
2023/01/14 08:12:05;;;;;;;0.30;0.30;;;;;;;6.78;100.00;100447.66;10399596;28;20032;-64
2023/01/14 08:17:06;;;;;;;0.50;0.50;;;;;;;6.79;100.00;100421.56;10416941;28;20465;-64
2023/01/14 08:22:06;;;;;;;0.40;0.40;;;;;;;6.87;100.00;100410.72;10400537;28;20072;-64
2023/01/14 08:27:06;;;;;;;0.65;0.65;;;;;;;6.88;100.00;100389.00;10399053;28;20060;-64
2023/01/14 08:32:07;;;;;;;0.30;0.30;;;;;;;6.94;100.00;100374.78;10422944;28;20116;-65
2023/01/14 08:37:07;;;;;;;1.42;1.35;;;;;;;6.97;100.00;100341.28;10424902;28;20037;-65
2023/01/14 08:42:08;;;;;;;0.32;0.32;;;;;;;7.05;100.00;100341.19;10418068;28;20477;-66
2023/01/14 08:47:08;;;;;;;0.73;0.73;;;;;;;7.08;100.00;100300.41;10416788;28;20124;-65
2023/01/14 08:52:09;;;;;;;0.30;0.30;;;;;;;7.16;100.00;100297.63;10416390;28;20033;-65
2023/01/14 08:57:09;;;;;;;0.50;0.50;;;;;;;7.22;100.00;100283.41;10415443;28;20041;-66
2023/01/14 09:02:13;;;;;;;0.35;0.35;;;;;;;7.26;100.00;100272.25;10416299;28;20045;-65
2023/01/14 09:17:52;;;;;;;0.40;0.40;;;;;;;7.37;100.00;100250.16;10415244;28;20065;-65
2023/01/14 09:22:52;;;;;;;0.30;0.30;;;;;;;7.40;100.00;100212.06;10399252;28;20469;-65
2023/01/14 09:27:53;;;;;;;0.30;0.30;;;;;;;7.46;100.00;100219.38;10396988;28;20033;-65
2023/01/14 09:32:53;;;;;;;0.40;0.40;;;;;;;7.48;100.00;100187.72;10397808;28;20050;-66
2023/01/14 09:37:54;;;;;;;0.38;0.38;;;;;;;7.45;100.00;100170.06;10397257;28;20045;-65
2023/01/14 09:42:55;;;;;;;0.30;0.30;;;;;;;7.55;100.00;100147.34;10414199;28;20593;-65
2023/01/14 09:48:15;;;;;;;0.20;0.20;;;;;;;7.58;100.00;100144.25;10414806;28;20099;-65
2023/01/14 09:53:34;;;;;;;0.47;0.47;;;;;;;7.59;100.00;100111.72;10381542;28;20029;-66
2023/01/14 09:58:39;;;;;;;0.47;0.47;;;;;;;7.69;100.00;100096.06;10414152;28;20040;-66
2023/01/14 10:04:06;;;;;;;0.30;0.30;;;;;;;7.71;100.00;100076.16;10396928;28;20048;-64
2023/01/14 10:09:13;;;;;;;0.40;0.40;;;;;;;7.74;100.00;100059.56;10404243;28;20385;-64
2023/01/14 10:14:26;;;;;;;0.50;0.50;;;;;;;7.84;100.00;100038.47;10380660;28;20390;-66
2023/01/14 10:19:38;;;;;;;0.40;0.40;;;;;;;7.87;100.00;99930.25;10401898;28;20025;-64
2023/01/14 10:24:40;;;;;;;0.30;0.30;;;;;;;7.93;100.00;100015.69;10389739;28;20041;-64
2023/01/14 10:29:40;;;;;;;0.30;0.30;;;;;;;7.95;100.00;100002.88;10405064;28;20036;-65
2023/01/14 10:34:45;;;;;;;0.38;0.38;;;;;;;8.00;100.00;99983.38;10405816;28;20398;-65
2023/01/14 10:39:50;;;;;;;7.88;2.72;;;;;;;8.02;100.00;99975.91;10421834;28;20100;-64
2023/01/14 10:44:51;;;;;;;0.35;0.35;;;;;;;8.05;100.00;99954.78;10404336;28;20033;-65
2023/01/14 10:49:55;;;;;;;0.50;0.50;;;;;;;8.13;100.00;99916.81;10404163;28;20095;-64
2023/01/14 10:55:17;;;;;;;0.45;0.45;;;;;;;8.25;100.00;99911.66;10420785;28;20429;-64
2023/01/14 11:00:30;;;;;;;1.92;1.50;;;;;;;8.25;100.00;99891.94;10404040;28;20041;-64
2023/01/14 11:05:35;;;;;;;4.93;2.92;;;;;;;8.36;100.00;99888.63;10419740;28;20029;-63
2023/01/14 11:10:35;;;;;;;0.55;0.55;;;;;;;8.41;100.00;99869.16;10422000;28;20034;-64
2023/01/14 11:15:37;;;;;;;0.40;0.40;;;;;;;8.43;100.00;99848.19;10402484;28;20493;-63
2023/01/14 11:20:39;;;;;;;0.40;0.40;;;;;;;8.55;100.00;99866.25;10410242;28;20138;-64
2023/01/14 11:25:41;;;;;;;0.32;0.32;;;;;;;8.61;100.00;99849.22;10420416;28;20135;-63
2023/01/14 11:30:42;;;;;;;5.47;2.50;;;;;;;8.65;100.00;99790.25;10418734;28;20120;-63
2023/01/14 11:35:43;;;;;;;9.25;2.63;;;;;;;8.70;100.00;99816.56;10420635;28;20045;-64
2023/01/14 11:46:08;;;;;;;3.90;3.08;;;;;;;8.79;100.00;99778.34;10389816;28;20026;-62
2023/01/14 11:51:21;;;;;;;2.85;1.08;;;;;;;8.86;100.00;99772.91;10400959;28;20038;-63
2023/01/14 11:56:31;;;;;;;7.32;2.47;;;;;;;8.86;100.00;99764.81;10418975;28;20129;-63
2023/01/14 12:01:58;;;;;;;2.10;1.90;;;;;;;8.92;100.00;99763.13;10400739;28;20041;-64
2023/01/14 12:07:01;;;;;;;0.40;0.40;;;;;;;9.01;100.00;99735.69;10387896;28;20050;-65
2023/01/14 12:12:22;;;;;;;0.30;0.30;;;;;;;8.99;100.00;99740.44;10399882;28;20041;-64
2023/01/14 12:17:34;;;;;;;0.30;0.30;;;;;;;9.08;100.00;99709.44;10409818;28;20045;-67
2023/01/14 12:22:46;;;;;;;0.40;0.40;;;;;;;9.06;100.00;99697.22;10417756;28;20377;-63
2023/01/14 12:28:10;;;;;;;3.03;2.03;;;;;;;9.10;100.00;99694.94;10417197;28;20037;-65
2023/01/14 12:33:29;;;;;;;0.30;0.30;;;;;;;9.15;100.00;99662.66;10360812;28;20073;-65
2023/01/14 12:49:18;;;;;;;0.45;0.45;;;;;;;9.34;100.00;99631.16;10401078;28;20045;-63
2023/01/14 12:54:24;;;;;;;1.73;1.63;;;;;;;9.31;100.00;99624.31;10416304;28;20037;-63
2023/01/14 12:59:39;;;;;;;4.45;3.67;;;;;;;9.36;100.00;99610.97;10416759;28;20021;-63
2023/01/14 13:05:09;;;;;;;4.93;3.35;;;;;;;9.45;100.00;99604.25;10400001;28;20045;-64
2023/01/14 13:10:10;;;;;;;15.70;6.28;;;;;;;9.46;100.00;99584.28;10400033;28;20053;-64
2023/01/14 13:15:19;;;;;;;0.40;0.40;;;;;;;9.43;100.00;99592.81;10399676;28;20450;-63
2023/01/14 13:20:19;;;;;;;0.40;0.40;;;;;;;9.54;100.00;99592.13;10416311;28;20049;-65
2023/01/14 13:25:33;;;;;;;0.43;0.43;;;;;;;9.56;100.00;99578.38;10440422;28;20056;-64
2023/01/14 13:30:34;;;;;;;0.30;0.30;;;;;;;9.60;100.00;99571.44;10423366;28;20043;-65
2023/01/14 13:35:35;;;;;;;0.40;0.40;;;;;;;9.63;100.00;99559.38;10410673;28;20056;-65
2023/01/14 13:40:36;;;;;;;2.63;2.42;;;;;;;9.66;100.00;99540.81;10381222;28;20033;-65
2023/01/14 13:45:37;;;;;;;0.40;0.40;;;;;;;9.74;100.00;99531.59;10415126;28;20069;-64
2023/01/14 13:50:38;;;;;;;0.20;0.20;;;;;;;9.79;100.00;99545.25;10381662;28;20085;-64
2023/01/14 13:55:38;;;;;;;0.50;0.50;;;;;;;9.82;100.00;99508.84;10389313;28;20033;-65
2023/01/14 14:00:40;;;;;;;0.38;0.38;;;;;;;9.78;100.00;99530.91;10405179;28;20084;-66
2023/01/14 14:05:40;;;;;;;0.30;0.30;;;;;;;9.83;100.00;99508.63;10405150;28;20045;-65
2023/01/14 14:10:42;;;;;;;0.32;0.32;;;;;;;9.91;100.00;99499.38;10421608;28;20131;-66
2023/01/14 14:15:47;;;;;;;0.30;0.30;;;;;;;9.87;100.00;99481.97;10405525;28;20021;-66
2023/01/14 14:20:47;;;;;;;0.25;0.25;;;;;;;9.97;100.00;99483.06;10403987;28;20033;-64
2023/01/14 14:25:48;;;;;;;0.40;0.40;;;;;;;9.99;100.00;99489.06;10403809;28;20032;-65
2023/01/14 14:30:58;;;;;;;0.40;0.40;;;;;;;10.04;100.00;99487.56;10403755;28;20369;-65
2023/01/14 14:35:59;;;;;;;0.40;0.40;;;;;;;10.11;100.00;99482.88;10403149;28;20060;-66
2023/01/14 14:41:14;;;;;;;0.35;0.35;;;;;;;10.08;100.00;99489.56;10403684;28;20454;-65
2023/01/14 14:46:25;;;;;;;0.40;0.40;;;;;;;10.11;100.00;99475.56;10396411;28;20029;-66
2023/01/14 14:51:27;;;;;;;0.30;0.30;;;;;;;10.16;100.00;99481.13;10404592;28;20021;-65
2023/01/14 14:56:28;;;;;;;0.40;0.40;;;;;;;10.16;100.00;99464.09;10420832;28;20068;-65
2023/01/14 15:01:32;;;;;;;0.30;0.30;;;;;;;10.13;100.00;99462.66;10386539;28;20041;-64
2023/01/14 15:06:34;;;;;;;0.40;0.40;;;;;;;10.15;100.00;99462.44;10385228;28;20041;-65
2023/01/14 15:11:37;;;;;;;0.40;0.40;;;;;;;10.15;100.00;99436.22;10402381;28;20381;-65
2023/01/14 15:16:38;;;;;;;0.40;0.40;;;;;;;10.17;100.00;99454.91;10358382;28;20099;-65
2023/01/14 15:21:39;;;;;;;0.38;0.38;;;;;;;10.24;100.00;99455.63;10418896;28;20045;-65
2023/01/14 15:26:39;;;;;;;0.30;0.30;;;;;;;10.20;100.00;99446.34;10385157;28;20061;-65
2023/01/14 15:31:39;;;;;;;0.30;0.30;;;;;;;10.27;100.00;99449.78;10402257;28;20100;-64
2023/01/14 15:36:40;;;;;;;0.40;0.40;;;;;;;10.31;100.00;99453.69;10420022;28;20108;-67
2023/01/14 15:41:51;;;;;;;0.30;0.30;;;;;;;10.32;100.00;99451.81;10420759;28;20108;-65
2023/01/14 15:46:52;;;;;;;0.30;0.30;;;;;;;10.34;100.00;99455.94;10384988;28;20050;-65
2023/01/14 15:51:53;;;;;;;0.47;0.47;;;;;;;10.37;100.00;99455.50;10384588;28;20189;-65
2023/01/14 15:56:54;;;;;;;0.45;0.45;;;;;;;10.41;100.00;99456.66;10417779;28;20358;-64
2023/01/14 16:01:54;;;;;;;0.47;0.47;;;;;;;10.47;100.00;99436.78;10400305;28;20044;-66
2023/01/14 16:07:25;;;;;;;0.35;0.35;;;;;;;10.55;100.00;99453.75;10401262;28;20085;-65
2023/01/14 16:12:26;;;;;;;0.50;0.50;;;;;;;10.56;100.00;99448.13;10401418;28;20366;-65
2023/01/14 16:17:26;;;;;;;0.43;0.43;;;;;;;10.57;100.00;99443.53;10399771;28;20072;-65
2023/01/14 16:22:27;;;;;;;0.40;0.40;;;;;;;10.55;100.00;99456.44;10417435;28;20037;-64
2023/01/14 16:27:28;;;;;;;0.40;0.40;;;;;;;10.49;100.00;99458.19;10416953;28;20033;-65
2023/01/14 16:32:28;;;;;;;0.47;0.47;;;;;;;10.40;100.00;99462.28;10416679;28;20041;-65
2023/01/14 16:37:29;;;;;;;0.35;0.35;;;;;;;10.37;100.00;99487.09;10416512;28;20065;-65
2023/01/14 16:42:29;;;;;;;0.50;0.50;;;;;;;10.39;100.00;99485.81;10415786;28;20046;-64
2023/01/14 16:47:30;;;;;;;1.67;1.58;;;;;;;10.38;100.00;99486.06;10416501;28;20033;-64
2023/01/14 16:52:30;;;;;;;0.55;0.55;;;;;;;10.36;100.00;99477.34;10416706;28;20536;-65
2023/01/14 16:57:31;;;;;;;0.30;0.30;;;;;;;10.43;100.00;99497.00;10397763;28;20041;-64
2023/01/14 17:02:31;;;;;;;0.50;0.50;;;;;;;10.42;100.00;99501.59;10399338;28;20466;-64
2023/01/14 17:07:33;;;;;;;0.85;0.85;;;;;;;10.35;100.00;99489.25;10416767;28;20057;-63
2023/01/14 17:12:39;;;;;;;0.98;0.98;;;;;;;10.35;100.00;99517.13;10398959;28;20458;-65
2023/01/14 17:17:40;;;;;;;0.90;0.90;;;;;;;10.28;100.00;99538.03;10419570;28;20117;-65
2023/01/14 17:22:41;;;;;;;0.65;0.65;;;;;;;10.23;100.00;99513.50;10403862;28;20072;-65
2023/01/14 17:27:42;;;;;;;0.35;0.35;;;;;;;10.21;100.00;99537.25;10405102;28;20041;-64
2023/01/14 17:32:43;;;;;;;0.40;0.40;;;;;;;10.22;100.00;99547.03;10397241;28;20116;-64
2023/01/14 17:37:45;;;;;;;0.22;0.22;;;;;;;10.19;100.00;99533.97;10382109;28;20029;-65
2023/01/14 17:42:52;;;;;;;0.47;0.47;;;;;;;10.17;100.00;99544.19;10399238;28;20060;-64
2023/01/14 17:47:52;;;;;;;;;;;;;;;10.09;100.00;99555.31;10416100;28;20394;-65
2023/01/14 17:52:52;;;;;;;0.35;0.35;;;;;;;10.08;100.00;99527.44;10414282;28;19963;-65
2023/01/14 17:57:53;;;;;;;0.47;0.47;;;;;;;10.07;100.00;99536.59;10396984;28;20040;-64
2023/01/14 18:02:53;;;;;;;0.38;0.38;;;;;;;9.97;100.00;99539.03;10415895;28;20033;-64
2023/01/14 18:07:53;;;;;;;43.28;4.28;;;;;;;9.96;100.00;99559.03;10395993;28;20033;-65
2023/01/14 18:12:54;;;;;;;0.47;0.47;;;;;;;9.90;100.00;99571.56;10415582;28;20033;-64
2023/01/14 18:17:54;;;;;;;0.47;0.47;;;;;;;9.81;100.00;99581.00;10415906;28;20414;-65
2023/01/14 18:22:59;;;;;;;10.63;4.03;;;;;;;9.77;100.00;99579.81;10414821;28;20096;-64
2023/01/14 18:28:00;;;;;;;17.05;4.55;;;;;;;9.63;100.00;99581.00;10420531;28;20042;-64
2023/01/14 18:33:04;;;;;;;19.70;4.80;;;;;;;9.53;100.00;99581.50;10414110;28;20520;-64
2023/01/14 18:38:04;;;;;;;13.90;3.17;;;;;;;9.20;100.00;99628.56;10415803;28;20458;-64
2023/01/14 18:43:05;;;;;;;4.85;1.80;;;;;;;8.19;100.00;99674.34;10404217;28;20025;-64
2023/01/14 18:48:05;;;;;;;7.68;3.22;;;;;;;7.82;100.00;99692.88;10421705;28;20386;-66
2023/01/14 18:53:06;;;;;;;6.70;2.88;;;;;;;7.69;100.00;99710.72;10403488;28;20057;-64
2023/01/14 18:58:06;;;;;;;9.30;2.70;;;;;;;7.65;100.00;99727.47;10403228;28;20446;-65
2023/01/14 19:03:07;;;;;;;10.88;3.78;;;;;;;7.53;100.00;99738.06;10421866;28;20041;-64
2023/01/14 19:08:07;;;;;;;13.55;2.65;;;;;;;7.39;100.00;99734.50;10421050;28;20038;-65
2023/01/14 19:13:08;;;;;;;7.65;2.63;;;;;;;7.37;100.00;99731.22;10421308;28;20029;-66
2023/01/14 19:18:09;;;;;;;14.70;3.78;;;;;;;7.26;100.00;99739.88;10420110;28;20049;-66
2023/01/14 19:23:09;;;;;;;15.13;3.33;;;;;;;7.19;100.00;99741.75;10403070;28;20041;-65
2023/01/14 19:28:10;;;;;;;11.75;2.70;;;;;;;7.22;100.00;99744.03;10419736;28;20042;-64
2023/01/14 19:33:10;;;;;;;8.05;3.08;;;;;;;7.22;100.00;99747.53;10419961;28;20053;-64
2023/01/14 19:38:10;;;;;;;3.22;2.30;;;;;;;7.19;100.00;99764.09;10419429;28;20111;-65
2023/01/14 19:43:11;;;;;;;2.92;2.50;;;;;;;7.14;100.00;99763.88;10419139;28;20029;-64
2023/01/14 19:48:11;;;;;;;5.22;2.08;;;;;;;7.13;100.00;99750.63;10418217;28;20072;-64
2023/01/14 19:53:11;;;;;;;15.30;4.20;;;;;;;7.14;100.00;99746.88;10417580;28;20041;-64
2023/01/14 19:58:12;;;;;;;12.48;3.03;;;;;;;7.14;100.00;99747.72;10418565;28;20053;-65
2023/01/14 20:03:13;;;;;;;15.45;3.25;;;;;;;7.18;100.00;99748.16;10418351;28;20492;-65
2023/01/14 20:08:13;;;;;;;12.07;2.25;;;;;;;7.15;100.00;99753.97;10400132;28;20033;-64
2023/01/14 20:13:14;;;;;;;6.50;2.03;;;;;;;7.19;100.00;99739.88;10416907;28;20478;-64
2023/01/14 20:18:14;;;;;;;7.93;3.92;;;;;;;7.21;100.00;99742.34;10417262;28;20033;-65
2023/01/14 20:23:15;;;;;;;3.35;2.05;;;;;;;7.21;100.00;99758.50;10418243;28;20044;-65
2023/01/14 20:28:19;;;;;;;17.60;3.72;;;;;;;7.19;100.00;99771.34;10417260;28;20041;-63
2023/01/14 20:33:22;;;;;;;3.22;2.35;;;;;;;7.01;100.00;99774.59;10399837;28;20132;-64
2023/01/14 20:38:23;;;;;;;11.15;2.78;;;;;;;6.88;100.00;99761.94;10417495;28;20060;-64
2023/01/14 20:43:27;;;;;;;9.00;3.22;;;;;;;6.86;100.00;99773.91;10416765;28;20046;-64
2023/01/14 20:48:33;;;;;;;12.13;4.07;;;;;;;6.87;100.00;99778.28;10400334;28;20519;-64
2023/01/14 20:53:33;;;;;;;10.50;2.22;;;;;;;6.86;100.00;99777.47;10400529;28;20049;-64
2023/01/14 21:03:34;;;;;;;14.25;3.03;;;;;;;6.84;100.00;99781.38;10415893;28;20029;-64
2023/01/14 21:08:35;;;;;;;14.55;2.35;;;;;;;6.80;100.00;99775.56;10398301;28;20319;-64
2023/01/14 21:24:13;;;;;;;9.80;3.13;;;;;;;6.80;100.00;99791.72;10414863;28;20485;-64
2023/01/14 21:29:14;;;;;;;11.93;2.38;;;;;;;6.81;100.00;99787.16;10415936;28;20053;-65
2023/01/14 21:34:14;;;;;;;7.80;2.17;;;;;;;6.79;100.00;99792.72;10415488;28;20139;-65
2023/01/14 21:39:15;;;;;;;11.98;2.67;;;;;;;6.81;100.00;99779.91;10415270;28;20048;-65
2023/01/14 21:44:15;;;;;;;5.93;2.90;;;;;;;6.78;100.00;99776.81;10420687;28;20042;-65
2023/01/14 21:49:15;;;;;;;13.13;2.28;;;;;;;6.88;100.00;99771.88;10423723;28;20390;-65
2023/01/14 21:54:16;;;;;;;13.23;2.45;;;;;;;6.85;100.00;99778.47;10419446;28;20104;-65
2023/01/14 21:59:16;;;;;;;8.38;3.45;;;;;;;6.90;100.00;99791.34;10397401;28;20061;-65
2023/01/14 22:04:16;;;;;;;7.90;2.60;;;;;;;6.93;100.00;99793.63;10414272;28;20346;-65
2023/01/14 22:09:17;;;;;;;11.48;2.67;;;;;;;6.88;100.00;99791.53;10398295;28;20036;-64
2023/01/14 22:14:17;;;;;;;8.93;2.15;;;;;;;6.96;100.00;99783.28;10418022;28;20026;-64
2023/01/14 22:19:18;;;;;;;11.38;3.00;;;;;;;6.99;100.00;99806.28;10422770;28;20045;-65
2023/01/14 22:24:18;;;;;;;6.30;2.63;;;;;;;6.96;100.00;99795.94;10403966;28;20041;-65
2023/01/14 22:29:19;;;;;;;7.22;3.13;;;;;;;6.97;100.00;99801.09;10422848;28;20505;-66
2023/01/14 22:34:19;;;;;;;11.75;3.17;;;;;;;7.03;100.00;99791.38;10421936;28;20064;-66
2023/01/14 22:39:19;;;;;;;10.23;3.13;;;;;;;7.12;100.00;99786.66;10421719;28;20072;-65
2023/01/14 22:44:20;;;;;;;7.88;1.83;;;;;;;7.15;100.00;99792.47;10404459;28;20432;-66
2023/01/14 22:49:21;;;;;;;9.07;3.70;;;;;;;7.15;100.00;99781.69;10421869;28;20038;-65
2023/01/14 22:54:21;;;;;;;11.27;3.17;;;;;;;7.11;100.00;99780.44;10403499;28;20370;-64
2023/01/14 22:59:22;;;;;;;7.78;3.30;;;;;;;7.05;100.00;99775.88;10420960;28;20092;-67
2023/01/14 23:04:22;;;;;;;21.17;3.58;;;;;;;6.97;100.00;99770.66;10420730;28;20038;-66
2023/01/14 23:09:23;;;;;;;13.20;3.80;;;;;;;7.00;100.00;99772.94;10420577;28;20057;-66
2023/01/14 23:14:23;;;;;;;16.17;2.40;;;;;;;7.01;100.00;99776.47;10385881;28;20040;-66
2023/01/14 23:19:24;;;;;;;6.18;2.78;;;;;;;7.05;100.00;99775.88;10421665;28;20450;-65
2023/01/14 23:24:25;;;;;;;9.77;3.47;;;;;;;6.98;100.00;99764.25;10401546;28;20029;-66
2023/01/14 23:29:26;;;;;;;9.30;3.33;;;;;;;6.99;100.00;99765.91;10419656;28;20436;-65
2023/01/14 23:34:26;;;;;;;5.72;2.88;;;;;;;7.01;100.00;99769.22;10401956;28;20069;-65
2023/01/14 23:39:26;;;;;;;10.20;3.75;;;;;;;7.02;100.00;99778.13;10401931;28;20465;-64
2023/01/14 23:44:27;;;;;;;6.13;2.95;;;;;;;6.99;100.00;99772.13;10421745;28;20084;-65
2023/01/14 23:49:27;;;;;;;16.92;3.15;;;;;;;7.02;100.00;99775.44;10404809;28;20038;-64
2023/01/14 23:54:28;;;;;;;16.80;3.30;;;;;;;7.03;100.00;99783.31;10401555;28;20074;-65
2023/01/14 23:59:29;;;;;;;6.13;2.28;;;;;;;7.09;100.00;99779.81;10401861;28;20124;-64
